Time;durP1;ratioP1;P1;durP2;ratioP2;P2;SDS_P1;SDS_P2;PMS_P1;PMS_P2;Temp;Humidity;BMP_temperature;BMP_pressure;BME280_temperature;BME280_humidity;BME280_pressure;Samples;Min_cycle;Max_cycle;Signal;HPM_P1;HPM_P2
2022/03/01 00:02:14;;;;;;;4.57;3.28;;;;;;;;;;5087606;28;20025;-72
2022/03/01 00:04:40;;;;;;;4.20;3.80;;;;;;;;;;5087003;28;20078;-71
2022/03/01 00:07:07;;;;;;;7.30;4.07;;;;;;;;;;5087408;28;20028;-74
2022/03/01 00:09:33;;;;;;;4.22;3.35;;;;;;;;;;5087902;28;20024;-73
2022/03/01 00:11:59;;;;;;;5.57;3.72;;;;;;;;;;5087362;28;20468;-71
2022/03/01 00:14:26;;;;;;;4.65;3.53;;;;;;;;;;5087075;28;20101;-75
2022/03/01 00:16:54;;;;;;;5.13;3.80;;;;;;;;;;5087822;28;20016;-71
2022/03/01 00:19:20;;;;;;;5.95;3.28;;;;;;;;;;5087361;28;20031;-72
2022/03/01 00:21:46;;;;;;;4.45;3.40;;;;;;;;;;5087467;28;20345;-71
2022/03/01 00:24:12;;;;;;;3.55;3.17;;;;;;;;;;5088155;28;20024;-73
2022/03/01 00:26:38;;;;;;;3.90;3.50;;;;;;;;;;5087744;28;20024;-73
2022/03/01 00:29:04;;;;;;;3.97;3.47;;;;;;;;;;5087093;28;20032;-76
2022/03/01 00:31:31;;;;;;;4.00;3.05;;;;;;;;;;5087307;28;20030;-74
2022/03/01 00:33:57;;;;;;;4.93;3.38;;;;;;;;;;5086424;28;20492;-72
2022/03/01 00:36:23;;;;;;;3.85;3.22;;;;;;;;;;5087359;28;20678;-73
2022/03/01 00:38:49;;;;;;;3.90;3.33;;;;;;;;;;5087418;28;20035;-74
2022/03/01 00:41:15;;;;;;;5.10;3.10;;;;;;;;;;5086977;28;20040;-74
2022/03/01 00:43:42;;;;;;;4.30;3.38;;;;;;;;;;5069486;28;20028;-74
2022/03/01 00:46:08;;;;;;;3.83;3.35;;;;;;;;;;5087203;28;20020;-73
2022/03/01 00:48:34;;;;;;;4.75;3.38;;;;;;;;;;5087223;28;20035;-74
2022/03/01 00:51:00;;;;;;;4.70;3.28;;;;;;;;;;5087090;28;20028;-73
2022/03/01 00:53:26;;;;;;;4.70;3.25;;;;;;;;;;5087191;28;20497;-73
2022/03/01 00:55:52;;;;;;;5.00;3.30;;;;;;;;;;5087252;28;20040;-74
2022/03/01 00:58:18;;;;;;;4.93;3.50;;;;;;;;;;5086991;28;20024;-76
2022/03/01 01:00:44;;;;;;;4.55;3.42;;;;;;;;;;5087083;28;20392;-74
2022/03/01 01:03:11;;;;;;;5.53;3.60;;;;;;;;;;5086083;28;20050;-73
2022/03/01 01:05:37;;;;;;;6.22;3.20;;;;;;;;;;5086676;28;20081;-73
2022/03/01 01:08:03;;;;;;;5.68;3.47;;;;;;;;;;5086601;28;20104;-73
2022/03/01 01:10:29;;;;;;;5.25;3.47;;;;;;;;;;5087029;28;20745;-76
2022/03/01 01:12:55;;;;;;;3.33;3.03;;;;;;;;;;5086971;28;20024;-75
2022/03/01 01:15:22;;;;;;;5.40;3.78;;;;;;;;;;5086169;28;20524;-76
2022/03/01 01:17:48;;;;;;;3.88;3.22;;;;;;;;;;5086441;28;20016;-74
2022/03/01 01:20:15;;;;;;;4.88;3.17;;;;;;;;;;5079108;28;20035;-76
2022/03/01 01:22:42;;;;;;;5.22;3.53;;;;;;;;;;5063613;28;20024;-72
2022/03/01 01:25:09;;;;;;;4.65;2.88;;;;;;;;;;5063278;28;20028;-73
2022/03/01 01:27:35;;;;;;;6.35;3.60;;;;;;;;;;5063970;28;20455;-73
2022/03/01 01:30:02;;;;;;;5.00;3.30;;;;;;;;;;5063672;28;20198;-75
2022/03/01 01:32:28;;;;;;;3.70;3.30;;;;;;;;;;5072405;28;20465;-75
2022/03/01 01:34:54;;;;;;;3.95;3.20;;;;;;;;;;5083177;28;20036;-75
2022/03/01 01:37:20;;;;;;;3.85;3.22;;;;;;;;;;5063248;28;20511;-74
2022/03/01 01:39:47;;;;;;;5.55;3.55;;;;;;;;;;5083809;28;20499;-76
2022/03/01 01:42:13;;;;;;;3.83;2.97;;;;;;;;;;5083848;28;20369;-75
2022/03/01 01:44:39;;;;;;;4.80;3.13;;;;;;;;;;5083022;28;20137;-73
2022/03/01 01:47:07;;;;;;;6.05;3.00;;;;;;;;;;5083390;28;20036;-73
2022/03/01 01:49:34;;;;;;;4.95;3.35;;;;;;;;;;5083441;28;20032;-75
2022/03/01 01:52:00;;;;;;;3.78;3.35;;;;;;;;;;5083058;28;20031;-75
2022/03/01 01:54:26;;;;;;;5.15;3.10;;;;;;;;;;5082753;28;20039;-73
2022/03/01 01:56:52;;;;;;;6.47;3.58;;;;;;;;;;5082851;28;20397;-74
2022/03/01 01:59:18;;;;;;;4.32;3.15;;;;;;;;;;5082893;28;20024;-74
2022/03/01 02:01:44;;;;;;;4.40;3.28;;;;;;;;;;5082926;28;20427;-75
2022/03/01 02:04:11;;;;;;;6.95;3.45;;;;;;;;;;5083550;28;20505;-73
2022/03/01 02:06:38;;;;;;;4.38;3.15;;;;;;;;;;5083005;28;20472;-75
2022/03/01 02:09:04;;;;;;;4.10;3.25;;;;;;;;;;5082552;28;20028;-73
2022/03/01 02:11:30;;;;;;;3.97;3.35;;;;;;;;;;5082915;28;20131;-74
2022/03/01 02:13:56;;;;;;;4.30;2.97;;;;;;;;;;5082660;28;20093;-72
2022/03/01 02:16:22;;;;;;;3.70;3.30;;;;;;;;;;5083115;28;20028;-76
2022/03/01 02:18:49;;;;;;;4.07;3.17;;;;;;;;;;5083152;28;20438;-76
2022/03/01 02:21:15;;;;;;;4.43;3.40;;;;;;;;;;5082086;28;20035;-74
2022/03/01 02:23:41;;;;;;;3.95;3.55;;;;;;;;;;5064562;28;20028;-72
2022/03/01 02:26:07;;;;;;;4.25;3.40;;;;;;;;;;5082909;28;20101;-74
2022/03/01 02:28:34;;;;;;;4.35;3.28;;;;;;;;;;5082602;28;20036;-77
2022/03/01 02:31:00;;;;;;;4.15;3.58;;;;;;;;;;5063745;28;20035;-73
2022/03/01 02:33:26;;;;;;;4.03;3.10;;;;;;;;;;5081898;28;20038;-74
2022/03/01 02:35:52;;;;;;;3.50;3.05;;;;;;;;;;5080787;28;20058;-77
2022/03/01 02:38:18;;;;;;;4.78;3.40;;;;;;;;;;5082882;28;20028;-75
2022/03/01 02:40:44;;;;;;;4.38;3.50;;;;;;;;;;5082489;28;20035;-72
2022/03/01 02:43:11;;;;;;;4.00;3.28;;;;;;;;;;5069266;28;20032;-74
2022/03/01 02:45:37;;;;;;;4.68;3.47;;;;;;;;;;5061824;28;20155;-73
2022/03/01 02:48:03;;;;;;;3.65;3.10;;;;;;;;;;5060600;28;20385;-73
2022/03/01 02:50:29;;;;;;;3.40;3.08;;;;;;;;;;5060809;28;20024;-73
2022/03/01 02:52:55;;;;;;;4.90;3.60;;;;;;;;;;5081611;28;20071;-72
2022/03/01 02:55:22;;;;;;;4.03;3.45;;;;;;;;;;5082020;28;20040;-73
2022/03/01 02:57:48;;;;;;;4.00;3.60;;;;;;;;;;5082157;28;20528;-75
2022/03/01 03:00:14;;;;;;;3.88;3.40;;;;;;;;;;5081758;28;20089;-72
2022/03/01 03:02:41;;;;;;;3.40;3.05;;;;;;;;;;5082200;28;20027;-73
2022/03/01 03:05:07;;;;;;;3.85;3.38;;;;;;;;;;5081484;28;20067;-73
2022/03/01 03:07:34;;;;;;;4.30;3.30;;;;;;;;;;5082171;28;20032;-75
2022/03/01 03:10:00;;;;;;;3.13;2.83;;;;;;;;;;5081984;28;20562;-76
2022/03/01 03:12:27;;;;;;;3.83;3.17;;;;;;;;;;5081039;28;20511;-75
2022/03/01 03:14:53;;;;;;;3.88;3.30;;;;;;;;;;5081824;28;20043;-73
2022/03/01 03:17:19;;;;;;;4.43;3.20;;;;;;;;;;5081971;28;20020;-73
2022/03/01 03:19:45;;;;;;;3.65;3.30;;;;;;;;;;5080978;28;20032;-74
2022/03/01 03:22:11;;;;;;;4.20;3.28;;;;;;;;;;5081448;28;20062;-73
2022/03/01 03:24:37;;;;;;;4.63;3.58;;;;;;;;;;5081509;28;20028;-73
2022/03/01 03:27:04;;;;;;;3.50;3.17;;;;;;;;;;5082144;28;20017;-72
2022/03/01 03:29:30;;;;;;;4.03;3.45;;;;;;;;;;5081967;28;20032;-73
2022/03/01 03:31:57;;;;;;;4.88;3.35;;;;;;;;;;5081371;28;20473;-72
2022/03/01 03:34:23;;;;;;;4.75;3.60;;;;;;;;;;5081222;28;20051;-74
2022/03/01 03:36:50;;;;;;;4.13;3.70;;;;;;;;;;5079638;28;20044;-73
2022/03/01 03:39:16;;;;;;;7.68;3.90;;;;;;;;;;5081463;28;20873;-76
2022/03/01 03:41:42;;;;;;;4.13;3.72;;;;;;;;;;5080890;28;20499;-72
2022/03/01 03:44:08;;;;;;;4.78;3.72;;;;;;;;;;5081327;28;20366;-75
2022/03/01 03:46:35;;;;;;;4.15;3.72;;;;;;;;;;5082040;28;20032;-73
2022/03/01 03:49:02;;;;;;;6.05;3.90;;;;;;;;;;5081786;28;20063;-75
2022/03/01 03:51:28;;;;;;;5.53;3.50;;;;;;;;;;5081539;28;20024;-76
2022/03/01 03:53:54;;;;;;;6.18;4.13;;;;;;;;;;5081352;28;20274;-76
2022/03/01 03:56:20;;;;;;;5.32;4.00;;;;;;;;;;5081569;28;20051;-73
2022/03/01 03:58:46;;;;;;;4.40;3.35;;;;;;;;;;5081332;28;20327;-74
2022/03/01 04:01:12;;;;;;;3.88;3.47;;;;;;;;;;5081145;28;20039;-76
2022/03/01 04:03:39;;;;;;;4.40;3.30;;;;;;;;;;5077134;28;20040;-74
2022/03/01 04:06:06;;;;;;;3.60;3.25;;;;;;;;;;5078553;28;20027;-73
2022/03/01 04:08:32;;;;;;;4.60;3.72;;;;;;;;;;5078306;28;20028;-74
2022/03/01 04:11:00;;;;;;;4.03;3.53;;;;;;;;;;5079328;28;20577;-74
2022/03/01 04:13:26;;;;;;;3.63;3.25;;;;;;;;;;5079370;28;20055;-73
2022/03/01 04:15:52;;;;;;;3.85;3.45;;;;;;;;;;5078302;28;20054;-77
2022/03/01 04:18:18;;;;;;;6.45;3.25;;;;;;;;;;5078808;28;20091;-73
2022/03/01 04:20:44;;;;;;;3.33;2.75;;;;;;;;;;5079912;28;20093;-73
2022/03/01 04:23:11;;;;;;;3.40;3.10;;;;;;;;;;5081794;28;20024;-72
2022/03/01 04:25:37;;;;;;;4.43;3.08;;;;;;;;;;5084522;28;20486;-73
2022/03/01 04:28:03;;;;;;;5.25;3.53;;;;;;;;;;5085203;28;20031;-73
2022/03/01 04:30:29;;;;;;;4.50;3.25;;;;;;;;;;5085165;28;20028;-74
2022/03/01 04:32:56;;;;;;;6.72;3.17;;;;;;;;;;5085099;28;20051;-75
2022/03/01 04:35:22;;;;;;;4.15;3.05;;;;;;;;;;5084468;28;20053;-73
2022/03/01 04:37:48;;;;;;;5.32;3.50;;;;;;;;;;5085361;28;20024;-72
2022/03/01 04:40:15;;;;;;;6.85;3.88;;;;;;;;;;5084649;28;20028;-73
2022/03/01 04:42:41;;;;;;;7.13;4.43;;;;;;;;;;5085079;28;20207;-72
2022/03/01 04:45:09;;;;;;;9.32;6.45;;;;;;;;;;5084581;28;20116;-72
2022/03/01 04:47:36;;;;;;;7.20;4.45;;;;;;;;;;5084518;28;20031;-74
2022/03/01 04:50:02;;;;;;;6.93;4.10;;;;;;;;;;5066433;28;20426;-73
2022/03/01 04:52:28;;;;;;;8.93;4.35;;;;;;;;;;5084232;28;20077;-73
2022/03/01 04:54:55;;;;;;;6.97;3.95;;;;;;;;;;5084291;28;20048;-72
2022/03/01 04:57:21;;;;;;;7.72;4.30;;;;;;;;;;5084248;28;20522;-72
2022/03/01 04:59:47;;;;;;;7.68;4.25;;;;;;;;;;5084758;28;20496;-72
2022/03/01 05:02:13;;;;;;;5.60;4.18;;;;;;;;;;5085062;28;20392;-72
2022/03/01 05:04:39;;;;;;;5.43;4.32;;;;;;;;;;5062615;28;20124;-73
2022/03/01 05:07:05;;;;;;;7.78;4.55;;;;;;;;;;5050202;28;20456;-73
2022/03/01 05:09:33;;;;;;;5.18;4.43;;;;;;;;;;5082021;28;20275;-73
2022/03/01 05:11:59;;;;;;;8.02;5.20;;;;;;;;;;5081853;28;20024;-73
2022/03/01 05:14:26;;;;;;;7.47;4.95;;;;;;;;;;5081806;28;20511;-73
2022/03/01 05:16:52;;;;;;;8.57;5.32;;;;;;;;;;5081471;28;20028;-72
2022/03/01 05:19:18;;;;;;;6.72;4.70;;;;;;;;;;5079859;28;20495;-72
2022/03/01 05:21:44;;;;;;;5.78;4.15;;;;;;;;;;5081703;28;20028;-73
2022/03/01 05:24:10;;;;;;;8.25;4.43;;;;;;;;;;5081507;28;20028;-73
2022/03/01 05:26:37;;;;;;;4.72;4.13;;;;;;;;;;5081085;28;20472;-73
2022/03/01 05:29:03;;;;;;;5.93;4.47;;;;;;;;;;5080878;28;20480;-74
2022/03/01 05:31:29;;;;;;;5.35;4.63;;;;;;;;;;5081590;28;20065;-74
2022/03/01 05:33:56;;;;;;;5.43;4.07;;;;;;;;;;5081138;28;20032;-74
2022/03/01 05:36:22;;;;;;;5.03;4.53;;;;;;;;;;5080423;28;20035;-74
2022/03/01 05:38:48;;;;;;;5.78;4.40;;;;;;;;;;5063073;28;20036;-74
2022/03/01 05:41:15;;;;;;;6.85;4.63;;;;;;;;;;5081257;28;20028;-73
2022/03/01 05:43:41;;;;;;;6.53;4.15;;;;;;;;;;5081154;28;20031;-73
2022/03/01 05:46:07;;;;;;;5.97;4.47;;;;;;;;;;5081352;28;20039;-73
2022/03/01 05:48:33;;;;;;;7.78;4.57;;;;;;;;;;5080919;28;20384;-73
2022/03/01 05:51:01;;;;;;;5.72;4.97;;;;;;;;;;5080823;28;20024;-72
2022/03/01 05:53:27;;;;;;;8.10;5.47;;;;;;;;;;5080983;28;20507;-74
2022/03/01 05:55:53;;;;;;;10.43;5.60;;;;;;;;;;5080162;28;20043;-73
2022/03/01 05:58:19;;;;;;;9.30;5.45;;;;;;;;;;5075358;28;20069;-72
2022/03/01 06:00:45;;;;;;;8.07;5.93;;;;;;;;;;5079043;28;20032;-73
2022/03/01 06:03:12;;;;;;;6.07;4.88;;;;;;;;;;5079420;28;20040;-73
2022/03/01 06:05:38;;;;;;;6.75;5.15;;;;;;;;;;5080864;28;20016;-73
2022/03/01 06:08:04;;;;;;;7.57;5.60;;;;;;;;;;5080600;28;20554;-74
2022/03/01 06:10:30;;;;;;;10.15;5.22;;;;;;;;;;5080775;28;20024;-76
2022/03/01 06:12:57;;;;;;;7.80;5.22;;;;;;;;;;5080914;28;20154;-73
2022/03/01 06:15:23;;;;;;;7.57;6.10;;;;;;;;;;5079796;28;20097;-73
2022/03/01 06:17:50;;;;;;;9.68;7.03;;;;;;;;;;5080325;28;20476;-73
2022/03/01 06:20:17;;;;;;;10.85;7.38;;;;;;;;;;5078593;28;20032;-74
2022/03/01 06:22:44;;;;;;;11.00;7.70;;;;;;;;;;5080420;28;20028;-73
2022/03/01 06:25:10;;;;;;;12.13;7.35;;;;;;;;;;5079822;28;20154;-74
2022/03/01 06:27:38;;;;;;;9.88;7.80;;;;;;;;;;5079341;28;20081;-75
2022/03/01 06:30:04;;;;;;;12.82;7.78;;;;;;;;;;5079770;28;20054;-73
2022/03/01 06:32:31;;;;;;;8.40;7.22;;;;;;;;;;5080719;28;20024;-73
2022/03/01 06:34:57;;;;;;;9.95;8.10;;;;;;;;;;5079791;28;20040;-73
2022/03/01 06:37:23;;;;;;;11.70;8.40;;;;;;;;;;5080096;28;20456;-72
2022/03/01 06:39:50;;;;;;;13.65;8.07;;;;;;;;;;5079340;28;20116;-74
2022/03/01 06:42:17;;;;;;;10.93;7.82;;;;;;;;;;5080436;28;20149;-73
2022/03/01 06:44:43;;;;;;;11.43;7.75;;;;;;;;;;5079996;28;20056;-73
2022/03/01 06:47:09;;;;;;;10.05;7.25;;;;;;;;;;5079592;28;20016;-73
2022/03/01 06:49:35;;;;;;;14.30;9.50;;;;;;;;;;5079478;28;20035;-73
2022/03/01 06:52:02;;;;;;;10.45;8.70;;;;;;;;;;5079373;28;20031;-73
2022/03/01 06:54:28;;;;;;;17.67;10.07;;;;;;;;;;5079464;28;20043;-72
2022/03/01 06:56:54;;;;;;;9.85;8.38;;;;;;;;;;5079746;28;20028;-73
2022/03/01 06:59:20;;;;;;;10.75;8.45;;;;;;;;;;5079759;28;20028;-73
2022/03/01 07:01:46;;;;;;;13.52;8.90;;;;;;;;;;5078745;28;20455;-74
2022/03/01 07:04:12;;;;;;;11.05;8.93;;;;;;;;;;5077374;28;20056;-73
2022/03/01 07:06:39;;;;;;;11.70;8.77;;;;;;;;;;5079657;28;20028;-73
2022/03/01 07:09:05;;;;;;;12.65;8.90;;;;;;;;;;5079770;28;20117;-72
2022/03/01 07:11:31;;;;;;;13.10;8.98;;;;;;;;;;5079222;28;20142;-73
2022/03/01 07:13:57;;;;;;;11.40;8.20;;;;;;;;;;5079723;28;20043;-73
2022/03/01 07:16:23;;;;;;;10.45;8.05;;;;;;;;;;5079276;28;20165;-72
2022/03/01 07:18:50;;;;;;;9.82;8.23;;;;;;;;;;5076177;28;20097;-73
2022/03/01 07:21:16;;;;;;;12.43;9.00;;;;;;;;;;5080133;28;20430;-72
2022/03/01 07:23:42;;;;;;;9.98;7.70;;;;;;;;;;5074160;28;20032;-73
2022/03/01 07:26:08;;;;;;;12.02;9.00;;;;;;;;;;5080123;28;20112;-72
2022/03/01 07:28:34;;;;;;;12.60;7.95;;;;;;;;;;5079087;28;20024;-73
2022/03/01 07:31:01;;;;;;;15.18;8.55;;;;;;;;;;5079109;28;20143;-71
2022/03/01 07:33:27;;;;;;;11.98;8.30;;;;;;;;;;5079129;28;20058;-71
2022/03/01 07:35:53;;;;;;;11.30;9.13;;;;;;;;;;5079189;28;20036;-71
2022/03/01 07:38:19;;;;;;;12.43;8.80;;;;;;;;;;5078232;28;20032;-72
2022/03/01 07:40:45;;;;;;;11.52;8.57;;;;;;;;;;5078230;28;20430;-72
2022/03/01 07:43:11;;;;;;;12.30;8.45;;;;;;;;;;5079883;28;20032;-71
2022/03/01 07:45:38;;;;;;;13.82;8.77;;;;;;;;;;5080014;28;20030;-71
2022/03/01 07:48:04;;;;;;;12.15;8.15;;;;;;;;;;5079290;28;20035;-71
2022/03/01 07:50:31;;;;;;;9.88;5.90;;;;;;;;;;5077722;28;20111;-73
2022/03/01 07:52:57;;;;;;;8.52;6.00;;;;;;;;;;5079062;28;20523;-72
2022/03/01 07:55:24;;;;;;;12.48;5.90;;;;;;;;;;5079754;28;20095;-71
2022/03/01 07:57:50;;;;;;;5.55;4.47;;;;;;;;;;5078943;28;20088;-72
2022/03/01 08:00:17;;;;;;;6.72;4.72;;;;;;;;;;5081684;28;20044;-72
2022/03/01 08:02:43;;;;;;;5.93;4.50;;;;;;;;;;5082553;28;20555;-75
2022/03/01 08:05:11;;;;;;;7.55;4.60;;;;;;;;;;5083221;28;20089;-72
2022/03/01 08:07:37;;;;;;;5.50;4.30;;;;;;;;;;5083098;28;20080;-71
2022/03/01 08:10:03;;;;;;;7.10;4.32;;;;;;;;;;5082383;28;20115;-71
2022/03/01 08:12:30;;;;;;;6.60;4.53;;;;;;;;;;5082976;28;20031;-71
2022/03/01 08:14:56;;;;;;;9.38;4.85;;;;;;;;;;5077027;28;20389;-73
2022/03/01 08:17:22;;;;;;;7.18;4.32;;;;;;;;;;5069187;28;20068;-72
2022/03/01 08:19:48;;;;;;;5.25;4.38;;;;;;;;;;5060212;28;20056;-71
2022/03/01 08:22:15;;;;;;;6.82;4.53;;;;;;;;;;5064183;28;20020;-72
2022/03/01 08:24:41;;;;;;;5.55;3.92;;;;;;;;;;5076672;28;20365;-72
2022/03/01 08:27:08;;;;;;;7.13;4.63;;;;;;;;;;5081349;28;20024;-72
2022/03/01 08:29:34;;;;;;;6.32;4.82;;;;;;;;;;5081544;28;20032;-73
2022/03/01 08:32:00;;;;;;;9.52;4.80;;;;;;;;;;5075566;28;20040;-72
2022/03/01 08:34:26;;;;;;;10.13;5.65;;;;;;;;;;5067739;28;20038;-72
2022/03/01 08:36:52;;;;;;;7.82;4.18;;;;;;;;;;5082308;28;20055;-73
2022/03/01 08:39:19;;;;;;;5.70;4.22;;;;;;;;;;5075926;28;20047;-73
2022/03/01 08:41:45;;;;;;;7.20;3.90;;;;;;;;;;5082837;28;20066;-72
2022/03/01 08:44:11;;;;;;;6.60;4.90;;;;;;;;;;5082163;28;20057;-71
2022/03/01 08:46:38;;;;;;;8.30;4.53;;;;;;;;;;5082219;28;20496;-72
2022/03/01 08:49:04;;;;;;;8.23;4.90;;;;;;;;;;5081990;28;20223;-71
2022/03/01 08:51:31;;;;;;;6.45;4.32;;;;;;;;;;5081428;28;20024;-71
2022/03/01 08:53:57;;;;;;;6.55;4.50;;;;;;;;;;5082159;28;20187;-72
2022/03/01 08:56:23;;;;;;;5.30;3.95;;;;;;;;;;5073870;28;20044;-72
2022/03/01 08:58:49;;;;;;;5.82;3.70;;;;;;;;;;5062253;28;20517;-71
2022/03/01 09:01:16;;;;;;;13.27;3.85;;;;;;;;;;5046035;28;20048;-73
2022/03/01 09:03:42;;;;;;;6.05;3.60;;;;;;;;;;5078051;28;20480;-72
2022/03/01 09:06:08;;;;;;;4.75;3.30;;;;;;;;;;5081974;28;20752;-70
2022/03/01 09:08:37;;;;;;;6.13;4.30;;;;;;;;;;5074982;28;20020;-70
2022/03/01 09:11:03;;;;;;;6.57;4.05;;;;;;;;;;5079973;28;20454;-71
2022/03/01 09:13:30;;;;;;;6.53;3.97;;;;;;;;;;5077671;28;20107;-70
2022/03/01 09:15:56;;;;;;;6.63;3.70;;;;;;;;;;5080972;28;20075;-72
2022/03/01 09:18:22;;;;;;;8.02;3.72;;;;;;;;;;5079945;28;20107;-73
2022/03/01 09:20:49;;;;;;;5.20;3.47;;;;;;;;;;5079413;28;20028;-71
2022/03/01 09:23:15;;;;;;;7.93;4.97;;;;;;;;;;5080957;28;20030;-70
2022/03/01 09:25:41;;;;;;;6.22;3.95;;;;;;;;;;5080119;28;20023;-73
2022/03/01 09:28:07;;;;;;;6.65;4.00;;;;;;;;;;5081317;28;20043;-70
2022/03/01 09:30:34;;;;;;;5.85;3.97;;;;;;;;;;5079743;28;20020;-70
2022/03/01 09:33:00;;;;;;;5.30;4.32;;;;;;;;;;5060752;28;20155;-70
2022/03/01 09:35:26;;;;;;;5.15;4.15;;;;;;;;;;5057853;28;20031;-72
2022/03/01 09:37:52;;;;;;;5.63;3.67;;;;;;;;;;5080643;28;20508;-72
2022/03/01 09:40:19;;;;;;;5.10;3.40;;;;;;;;;;5080571;28;20044;-70
2022/03/01 09:42:45;;;;;;;5.53;4.18;;;;;;;;;;5079609;28;20024;-70
2022/03/01 09:45:12;;;;;;;5.65;3.85;;;;;;;;;;5072273;28;20055;-74
2022/03/01 09:47:38;;;;;;;5.15;3.38;;;;;;;;;;5080796;28;20500;-70
2022/03/01 09:50:06;;;;;;;4.93;3.30;;;;;;;;;;5079540;28;20054;-77
2022/03/01 09:52:32;;;;;;;7.35;3.60;;;;;;;;;;5080225;28;20020;-74
2022/03/01 09:54:58;;;;;;;5.75;3.67;;;;;;;;;;5080167;28;20048;-72
2022/03/01 09:57:24;;;;;;;6.50;3.85;;;;;;;;;;5067901;28;20033;-70
2022/03/01 09:59:51;;;;;;;5.45;4.28;;;;;;;;;;5060050;28;20089;-69
2022/03/01 10:02:17;;;;;;;11.65;3.90;;;;;;;;;;5063102;28;20355;-68
2022/03/01 10:04:57;;;;;;;6.65;3.72;;;;;;;;;;5079865;28;20047;-71
2022/03/01 10:07:24;;;;;;;5.80;3.53;;;;;;;;;;5078621;28;20024;-71
2022/03/01 10:09:50;;;;;;;6.13;4.18;;;;;;;;;;5059755;28;20437;-71
2022/03/01 10:12:23;;;;;;;5.45;3.90;;;;;;;;;;5059647;28;20025;-71
2022/03/01 10:14:55;;;;;;;6.65;4.10;;;;;;;;;;5060047;28;20060;-71
2022/03/01 10:17:21;;;;;;;7.97;3.90;;;;;;;;;;5059496;28;20028;-68
2022/03/01 10:19:47;;;;;;;4.15;3.58;;;;;;;;;;5059021;28;20477;-71
2022/03/01 10:22:13;;;;;;;4.07;3.40;;;;;;;;;;5059410;28;20048;-70
2022/03/01 10:24:48;;;;;;;5.30;3.78;;;;;;;;;;5059846;28;20020;-68
2022/03/01 10:27:14;;;;;;;5.97;3.65;;;;;;;;;;5060443;28;20028;-70
2022/03/01 10:29:47;;;;;;;10.25;4.47;;;;;;;;;;5077820;28;20191;-70
2022/03/01 10:32:13;;;;;;;6.38;4.10;;;;;;;;;;5080236;28;20020;-69
2022/03/01 10:34:39;;;;;;;7.38;3.78;;;;;;;;;;5079612;28;20036;-70
2022/03/01 10:37:05;;;;;;;5.88;3.65;;;;;;;;;;5079841;28;20020;-70
2022/03/01 10:39:33;;;;;;;5.28;3.67;;;;;;;;;;5079898;28;20110;-71
2022/03/01 10:41:59;;;;;;;5.90;3.97;;;;;;;;;;5079598;28;20081;-70
2022/03/01 10:44:26;;;;;;;6.25;4.72;;;;;;;;;;5079054;28;20039;-70
2022/03/01 10:46:54;;;;;;;7.53;4.82;;;;;;;;;;5077233;28;20027;-70
2022/03/01 10:49:25;;;;;;;7.53;4.40;;;;;;;;;;5078865;28;20346;-70
2022/03/01 10:51:59;;;;;;;8.55;4.47;;;;;;;;;;5078419;28;20032;-70
2022/03/01 10:54:32;;;;;;;11.00;4.32;;;;;;;;;;5076486;28;20036;-74
2022/03/01 10:56:59;;;;;;;6.78;4.35;;;;;;;;;;5078443;28;20071;-70
2022/03/01 10:59:29;;;;;;;8.18;4.72;;;;;;;;;;5078742;28;20028;-72
2022/03/01 11:01:56;;;;;;;6.25;4.32;;;;;;;;;;5078455;28;20089;-71
2022/03/01 11:04:24;;;;;;;5.20;4.43;;;;;;;;;;5077844;28;20075;-75
2022/03/01 11:06:51;;;;;;;7.38;5.40;;;;;;;;;;5078485;28;20044;-70
2022/03/01 11:09:17;;;;;;;11.80;6.40;;;;;;;;;;5070253;28;20024;-72
2022/03/01 11:11:45;;;;;;;11.93;5.45;;;;;;;;;;5078027;28;20111;-71
2022/03/01 11:14:14;;;;;;;15.63;5.50;;;;;;;;;;5077018;28;20035;-69
2022/03/01 11:16:48;;;;;;;11.43;5.05;;;;;;;;;;5076011;28;20504;-69
2022/03/01 11:19:23;;;;;;;10.18;5.03;;;;;;;;;;5074450;28;20024;-69
2022/03/01 11:21:50;;;;;;;9.55;5.00;;;;;;;;;;5077061;28;20036;-69
2022/03/01 11:24:17;;;;;;;9.98;5.38;;;;;;;;;;5077958;28;20028;-72
2022/03/01 11:26:43;;;;;;;8.77;5.25;;;;;;;;;;5079197;28;20028;-69
2022/03/01 11:29:10;;;;;;;9.23;5.25;;;;;;;;;;5076816;28;20027;-69
2022/03/01 11:31:37;;;;;;;9.00;5.30;;;;;;;;;;5078921;28;20039;-69
2022/03/01 11:34:07;;;;;;;7.68;5.20;;;;;;;;;;5079125;28;20032;-69
2022/03/01 11:36:34;;;;;;;8.27;4.70;;;;;;;;;;5081984;28;20456;-69
2022/03/01 11:39:14;;;;;;;6.57;4.93;;;;;;;;;;5082595;28;20027;-69
2022/03/01 11:41:42;;;;;;;7.80;5.28;;;;;;;;;;5070004;28;20538;-69
2022/03/01 11:44:08;;;;;;;8.55;5.20;;;;;;;;;;5096858;28;20718;-69
2022/03/01 11:46:42;;;;;;;8.10;5.45;;;;;;;;;;5083344;28;20028;-69
2022/03/01 11:49:08;;;;;;;6.40;5.13;;;;;;;;;;5082809;28;20079;-70
2022/03/01 11:51:36;;;;;;;7.38;4.80;;;;;;;;;;5083744;28;20571;-75
2022/03/01 11:54:06;;;;;;;6.18;5.00;;;;;;;;;;5081765;28;20032;-69
2022/03/01 11:56:36;;;;;;;6.65;5.10;;;;;;;;;;5080760;28;20112;-69
2022/03/01 11:59:08;;;;;;;7.45;5.10;;;;;;;;;;5081424;28;20089;-70
2022/03/01 12:01:35;;;;;;;7.38;5.45;;;;;;;;;;5083308;28;20032;-74
2022/03/01 12:04:06;;;;;;;12.05;6.03;;;;;;;;;;5082712;28;20048;-68
2022/03/01 12:06:33;;;;;;;8.38;4.97;;;;;;;;;;5081501;28;20567;-68
2022/03/01 12:09:00;;;;;;;8.88;6.00;;;;;;;;;;5083310;28;20031;-71
2022/03/01 12:11:33;;;;;;;9.45;5.47;;;;;;;;;;5081902;28;20102;-69
2022/03/01 12:14:06;;;;;;;8.50;5.28;;;;;;;;;;5085166;28;20111;-69
2022/03/01 12:16:33;;;;;;;9.35;5.20;;;;;;;;;;5083856;28;20516;-70
2022/03/01 12:19:07;;;;;;;9.35;5.05;;;;;;;;;;5079399;28;20093;-69
2022/03/01 12:21:33;;;;;;;7.97;5.53;;;;;;;;;;5082795;28;20113;-70
2022/03/01 12:23:59;;;;;;;11.65;5.60;;;;;;;;;;5083648;28;20046;-71
2022/03/01 12:26:27;;;;;;;10.30;5.65;;;;;;;;;;5065677;28;20595;-69
2022/03/01 12:28:55;;;;;;;10.05;5.03;;;;;;;;;;5084921;28;20036;-68
2022/03/01 12:31:25;;;;;;;23.65;5.70;;;;;;;;;;5084285;28;20032;-70
2022/03/01 12:33:55;;;;;;;8.85;4.63;;;;;;;;;;5083811;28;20103;-70
2022/03/01 12:36:24;;;;;;;7.82;4.63;;;;;;;;;;5082196;28;20369;-69
2022/03/01 12:38:57;;;;;;;8.77;4.47;;;;;;;;;;5084469;28;20077;-69
2022/03/01 12:41:23;;;;;;;12.05;4.05;;;;;;;;;;5083415;28;20024;-70
2022/03/01 12:43:57;;;;;;;11.65;3.42;;;;;;;;;;5084446;28;20028;-69
2022/03/01 12:46:23;;;;;;;18.13;3.63;;;;;;;;;;5083647;28;20035;-69
2022/03/01 12:48:50;;;;;;;5.97;2.40;;;;;;;;;;5083968;28;20020;-70
2022/03/01 12:51:16;;;;;;;7.72;2.83;;;;;;;;;;5080369;28;20043;-69
2022/03/01 12:53:58;;;;;;;7.85;2.45;;;;;;;;;;5073001;28;20035;-68
2022/03/01 12:56:28;;;;;;;5.33;2.67;;;;;;;;;;5067421;28;20040;-69
2022/03/01 12:58:55;;;;;;;6.30;2.67;;;;;;;;;;5072153;28;20315;-69
2022/03/01 13:01:22;;;;;;;3.10;2.13;;;;;;;;;;5061127;28;20063;-69
2022/03/01 13:03:51;;;;;;;5.25;2.53;;;;;;;;;;5060794;28;20048;-69
2022/03/01 13:06:18;;;;;;;6.93;3.28;;;;;;;;;;5061596;28;20033;-70
2022/03/01 13:08:47;;;;;;;3.60;2.58;;;;;;;;;;5061186;28;20550;-68
2022/03/01 13:11:14;;;;;;;5.78;3.38;;;;;;;;;;5068431;28;20064;-69
2022/03/01 13:13:41;;;;;;;4.75;3.28;;;;;;;;;;5061264;28;20021;-69
2022/03/01 13:16:07;;;;;;;9.50;3.80;;;;;;;;;;5042954;28;20098;-70
2022/03/01 13:18:33;;;;;;;10.27;3.15;;;;;;;;;;5061051;28;20047;-71
2022/03/01 13:21:00;;;;;;;4.88;3.10;;;;;;;;;;5060891;28;20032;-71
2022/03/01 13:23:30;;;;;;;6.90;3.78;;;;;;;;;;5074782;28;20392;-72
2022/03/01 13:25:57;;;;;;;8.43;3.63;;;;;;;;;;5081071;28;20457;-69
2022/03/01 13:28:30;;;;;;;3.65;3.17;;;;;;;;;;5080876;28;20543;-70
2022/03/01 13:30:57;;;;;;;5.25;3.30;;;;;;;;;;5075768;28;20175;-69
2022/03/01 13:33:27;;;;;;;4.95;3.35;;;;;;;;;;5080639;28;20024;-69
2022/03/01 13:35:53;;;;;;;7.55;3.70;;;;;;;;;;5080294;28;20036;-69
2022/03/01 13:38:20;;;;;;;5.10;3.63;;;;;;;;;;5074300;28;20461;-70
2022/03/01 13:40:46;;;;;;;6.00;2.70;;;;;;;;;;5060001;28;20222;-70
2022/03/01 13:43:17;;;;;;;4.28;2.90;;;;;;;;;;5079298;28;20020;-71
2022/03/01 13:45:43;;;;;;;5.65;2.90;;;;;;;;;;5068910;28;21181;-70
2022/03/01 13:48:13;;;;;;;4.85;2.60;;;;;;;;;;5078791;28;20035;-73
2022/03/01 13:50:39;;;;;;;5.55;2.40;;;;;;;;;;5076108;28;20064;-71
2022/03/01 13:53:16;;;;;;;8.63;2.80;;;;;;;;;;5079675;28;20122;-68
2022/03/01 13:55:43;;;;;;;8.55;5.78;;;;;;;;;;5079513;28;20496;-71
2022/03/01 13:58:13;;;;;;;4.03;2.67;;;;;;;;;;5079720;28;20552;-74
2022/03/01 14:00:42;;;;;;;6.68;3.60;;;;;;;;;;5079849;28;20273;-71
2022/03/01 14:03:08;;;;;;;4.97;2.90;;;;;;;;;;5079603;28;20436;-72
2022/03/01 14:05:38;;;;;;;6.03;2.60;;;;;;;;;;5080087;28;20307;-71
2022/03/01 14:08:06;;;;;;;6.05;3.10;;;;;;;;;;5080375;28;20020;-71
2022/03/01 14:10:37;;;;;;;5.40;2.92;;;;;;;;;;5078764;28;20081;-74
2022/03/01 14:13:16;;;;;;;6.30;2.53;;;;;;;;;;5079866;28;20039;-71
2022/03/01 14:15:45;;;;;;;9.27;4.80;;;;;;;;;;5079296;28;20559;-71
2022/03/01 14:18:12;;;;;;;6.72;4.18;;;;;;;;;;5079897;28;20499;-71
2022/03/01 14:20:40;;;;;;;6.20;4.63;;;;;;;;;;5080068;28;20031;-70
2022/03/01 14:23:06;;;;;;;6.22;3.60;;;;;;;;;;5080546;28;20028;-71
2022/03/01 14:25:33;;;;;;;6.40;3.35;;;;;;;;;;5062152;28;20511;-71
2022/03/01 14:27:59;;;;;;;4.28;2.95;;;;;;;;;;5079187;28;20032;-74
2022/03/01 14:30:25;;;;;;;5.00;3.90;;;;;;;;;;5080579;28;20176;-70
2022/03/01 14:32:51;;;;;;;6.45;3.20;;;;;;;;;;5062072;28;20035;-71
2022/03/01 14:35:19;;;;;;;8.73;3.50;;;;;;;;;;5080492;28;20043;-70
2022/03/01 14:37:45;;;;;;;6.72;4.15;;;;;;;;;;5079834;28;20027;-70
2022/03/01 14:40:11;;;;;;;5.18;3.13;;;;;;;;;;5079637;28;20108;-70